createdAt,value
2023-01-07T00:01:34.780Z,1.57
2023-01-07T00:04:04.690Z,1.42
2023-01-07T00:06:35.616Z,1.35
2023-01-07T00:09:05.827Z,1.35
2023-01-07T00:11:38.659Z,1.37
2023-01-07T00:14:08.884Z,1.33
2023-01-07T00:16:37.383Z,1.35
2023-01-07T00:19:07.030Z,1.43
2023-01-07T00:21:34.806Z,1.38
2023-01-07T00:24:05.235Z,1.38
2023-01-07T00:26:37.868Z,1.43
2023-01-07T00:29:07.260Z,1.46
2023-01-07T00:31:37.662Z,1.42
2023-01-07T00:34:06.450Z,1.44
2023-01-07T00:36:37.667Z,1.49
2023-01-07T00:39:12.938Z,1.62
2023-01-07T00:41:40.808Z,1.54
2023-01-07T00:44:08.880Z,1.74
2023-01-07T00:46:36.618Z,1.67
2023-01-07T00:49:04.660Z,1.60
2023-01-07T00:51:32.360Z,1.57
2023-01-07T00:54:00.308Z,1.48
2023-01-07T00:56:27.948Z,1.45
2023-01-07T00:58:55.965Z,1.43
2023-01-07T01:01:23.862Z,1.47
2023-01-07T01:03:51.893Z,1.50
2023-01-07T01:06:19.570Z,1.50
2023-01-07T01:08:48.004Z,1.51
2023-01-07T01:11:17.134Z,1.49
2023-01-07T01:13:46.433Z,1.69
2023-01-07T01:16:17.195Z,1.54
2023-01-07T01:18:46.436Z,1.55
2023-01-07T01:21:16.136Z,1.77
2023-01-07T01:23:44.789Z,2.01
2023-01-07T01:26:15.068Z,2.02
2023-01-07T01:28:43.872Z,1.77
2023-01-07T01:31:13.896Z,1.51
2023-01-07T01:33:49.156Z,1.51
2023-01-07T01:36:20.531Z,1.47
2023-01-07T01:38:48.576Z,1.49
2023-01-07T01:41:16.606Z,1.51
2023-01-07T01:43:46.462Z,1.45
2023-01-07T01:46:35.649Z,1.42
2023-01-07T01:49:19.411Z,1.49
2023-01-07T01:51:54.206Z,1.54
2023-01-07T01:54:22.414Z,1.51
2023-01-07T01:56:55.929Z,1.56
2023-01-07T01:59:30.970Z,1.60
2023-01-07T02:02:04.097Z,1.56
2023-01-07T02:04:33.332Z,1.55
2023-01-07T02:07:06.765Z,1.89
2023-01-07T02:09:37.248Z,1.93
2023-01-07T02:12:38.522Z,1.64
2023-01-07T02:15:13.709Z,1.54
2023-01-07T02:17:55.085Z,1.69
2023-01-07T02:20:35.887Z,1.56
2023-01-07T02:23:41.949Z,1.61
2023-01-07T02:26:34.280Z,1.81
2023-01-07T02:29:11.204Z,1.84
2023-01-07T02:32:09.812Z,1.71
2023-01-07T02:34:52.025Z,1.72
2023-01-07T02:37:37.929Z,1.67
2023-01-07T02:40:24.440Z,1.75
2023-01-07T02:43:04.598Z,1.78
2023-01-07T02:45:47.611Z,1.80
2023-01-07T02:48:19.905Z,1.56
2023-01-07T02:50:47.620Z,1.75
2023-01-07T02:53:19.639Z,1.68
2023-01-07T02:55:52.608Z,1.62
2023-01-07T02:58:25.753Z,1.61
2023-01-07T03:01:11.970Z,1.72
2023-01-07T03:04:06.402Z,1.59
2023-01-07T03:06:45.722Z,1.80
2023-01-07T03:09:33.156Z,1.91
2023-01-07T03:12:24.519Z,1.80
2023-01-07T03:15:01.627Z,2.04
2023-01-07T03:17:35.503Z,1.97
2023-01-07T03:20:06.056Z,1.98
2023-01-07T03:22:36.649Z,1.87
2023-01-07T03:25:05.925Z,1.80
2023-01-07T03:27:36.832Z,1.63
2023-01-07T03:30:10.232Z,1.61
2023-01-07T03:33:01.451Z,1.75
2023-01-07T03:35:33.000Z,1.68
2023-01-07T03:38:03.119Z,1.73
2023-01-07T03:40:32.576Z,1.55
2023-01-07T03:43:00.649Z,1.74
2023-01-07T03:45:29.489Z,1.62
2023-01-07T03:47:59.541Z,1.58
2023-01-07T03:50:34.643Z,1.59
2023-01-07T03:53:03.167Z,1.76
2023-01-07T03:55:34.327Z,1.72
2023-01-07T03:58:02.562Z,1.99
2023-01-07T04:00:30.711Z,1.82
2023-01-07T04:03:11.946Z,1.83
2023-01-07T04:05:43.140Z,1.72
2023-01-07T04:08:12.360Z,1.71
2023-01-07T04:10:41.004Z,1.73
2023-01-07T04:13:09.299Z,1.86
2023-01-07T04:15:37.949Z,1.81
2023-01-07T04:18:05.698Z,1.99
2023-01-07T04:20:33.740Z,1.87
2023-01-07T04:23:01.503Z,1.78
2023-01-07T04:25:32.295Z,1.96
2023-01-07T04:28:02.561Z,1.92
2023-01-07T04:30:30.813Z,2.13
2023-01-07T04:32:58.500Z,2.11
2023-01-07T04:35:26.831Z,2.34
2023-01-07T04:37:54.628Z,2.27
2023-01-07T04:40:22.639Z,2.12
2023-01-07T04:42:50.312Z,1.98
2023-01-07T04:45:18.579Z,2.04
2023-01-07T04:47:46.518Z,2.01
2023-01-07T04:50:15.594Z,2.11
2023-01-07T04:52:43.463Z,2.14
2023-01-07T04:55:11.517Z,1.86
2023-01-07T04:57:39.591Z,1.79
2023-01-07T05:00:09.758Z,1.85
2023-01-07T05:02:38.233Z,1.84
2023-01-07T05:05:06.826Z,1.76
2023-01-07T05:07:36.054Z,1.76
2023-01-07T05:10:05.020Z,1.72
2023-01-07T05:12:35.437Z,2.00
2023-01-07T05:15:05.780Z,2.00
2023-01-07T05:17:35.599Z,1.82
2023-01-07T05:20:07.755Z,1.80
2023-01-07T05:22:37.444Z,1.74
2023-01-07T05:25:06.607Z,1.83
2023-01-07T05:27:34.332Z,1.74
2023-01-07T05:30:05.228Z,1.83
2023-01-07T05:32:32.993Z,1.83
2023-01-07T05:35:02.039Z,1.95
2023-01-07T05:37:30.096Z,2.00
2023-01-07T05:39:58.880Z,1.99
2023-01-07T05:42:26.723Z,2.02
2023-01-07T05:44:55.041Z,1.98
2023-01-07T05:47:22.843Z,1.97
2023-01-07T05:49:51.028Z,1.90
2023-01-07T05:52:18.785Z,1.99
2023-01-07T05:54:46.766Z,2.00
2023-01-07T05:57:14.487Z,1.86
2023-01-07T05:59:42.465Z,1.79
2023-01-07T06:02:10.317Z,1.83
2023-01-07T06:04:38.376Z,2.00
2023-01-07T06:07:06.170Z,1.82
2023-01-07T06:09:34.381Z,1.95
2023-01-07T06:12:02.084Z,1.88
2023-01-07T06:14:30.075Z,1.98
2023-01-07T06:16:57.778Z,2.10
2023-01-07T06:19:26.550Z,1.93
2023-01-07T06:21:54.254Z,2.00
2023-01-07T06:24:22.247Z,2.07
2023-01-07T06:26:50.123Z,1.98
2023-01-07T06:29:18.808Z,2.05
2023-01-07T06:31:46.520Z,2.18
2023-01-07T06:34:14.557Z,2.04
2023-01-07T06:36:42.321Z,1.97
2023-01-07T06:39:11.194Z,1.86
2023-01-07T06:41:38.967Z,1.82
2023-01-07T06:44:07.150Z,1.89
2023-01-07T06:46:34.938Z,1.86
2023-01-07T06:49:03.561Z,2.02
2023-01-07T06:51:31.464Z,1.99
2023-01-07T06:53:59.577Z,1.97
2023-01-07T06:56:27.269Z,2.08
2023-01-07T06:58:55.213Z,2.14
2023-01-07T07:01:23.109Z,2.14
2023-01-07T07:03:51.126Z,2.07
2023-01-07T07:06:18.975Z,2.03
2023-01-07T07:08:47.154Z,2.14
2023-01-07T07:11:14.842Z,2.17
2023-01-07T07:13:42.979Z,2.23
2023-01-07T07:16:10.727Z,2.29
2023-01-07T07:18:38.838Z,2.37
2023-01-07T07:21:06.641Z,2.29
2023-01-07T07:23:34.663Z,2.20
2023-01-07T07:26:02.421Z,2.16
2023-01-07T07:28:30.325Z,2.12
2023-01-07T07:30:58.157Z,2.33
2023-01-07T07:33:26.188Z,2.33
2023-01-07T07:35:55.275Z,2.44
2023-01-07T07:38:23.408Z,2.55
2023-01-07T07:40:51.195Z,2.49
2023-01-07T07:43:19.305Z,2.36
2023-01-07T07:45:46.999Z,2.61
2023-01-07T07:48:15.895Z,2.67
2023-01-07T07:50:44.139Z,2.64
2023-01-07T07:53:12.262Z,2.60
2023-01-07T07:55:40.687Z,2.88
2023-01-07T07:58:08.701Z,2.87
2023-01-07T08:00:36.490Z,2.77
2023-01-07T08:03:05.367Z,2.90
2023-01-07T08:05:33.232Z,3.08
2023-01-07T08:08:01.759Z,2.97
2023-01-07T08:10:30.067Z,2.97
2023-01-07T08:12:58.016Z,3.09
2023-01-07T08:15:25.773Z,3.23
2023-01-07T08:18:05.454Z,3.14
2023-01-07T08:20:34.775Z,3.23
2023-01-07T08:23:04.618Z,3.37
2023-01-07T08:25:33.698Z,3.49
2023-01-07T08:28:02.625Z,3.44
2023-01-07T08:30:30.891Z,3.74
2023-01-07T08:32:59.471Z,3.82
2023-01-07T08:35:27.207Z,3.80
2023-01-07T08:38:05.671Z,3.70
2023-01-07T08:40:34.314Z,3.69
2023-01-07T08:43:06.215Z,3.88
2023-01-07T08:45:34.775Z,4.05
2023-01-07T08:48:03.366Z,4.10
2023-01-07T08:50:33.334Z,3.96
2023-01-07T08:53:01.792Z,4.00
2023-01-07T08:55:29.608Z,4.25
2023-01-07T08:57:58.240Z,4.18
2023-01-07T09:00:26.044Z,4.40
2023-01-07T09:02:54.040Z,4.33
2023-01-07T09:05:22.371Z,4.42
2023-01-07T09:07:53.405Z,4.29
2023-01-07T09:10:21.421Z,4.33
2023-01-07T09:12:49.602Z,4.46
2023-01-07T09:15:17.455Z,4.60
2023-01-07T09:17:45.813Z,4.62
2023-01-07T09:20:13.700Z,4.71
2023-01-07T09:22:41.729Z,4.96
2023-01-07T09:25:09.649Z,5.03
2023-01-07T09:27:38.446Z,5.11
2023-01-07T09:30:08.105Z,5.33
2023-01-07T09:32:36.289Z,5.43
2023-01-07T09:35:05.011Z,5.30
2023-01-07T09:37:33.338Z,5.58
2023-01-07T09:40:01.320Z,5.69
2023-01-07T09:42:56.262Z,5.69
2023-01-07T09:45:29.179Z,5.93
2023-01-07T09:47:59.983Z,6.07
2023-01-07T09:50:42.812Z,6.20
2023-01-07T09:53:34.291Z,6.03
2023-01-07T09:56:10.687Z,6.32
2023-01-07T09:58:45.119Z,6.24
2023-01-07T10:01:24.439Z,6.45
2023-01-07T10:04:13.421Z,6.65
2023-01-07T10:07:11.391Z,6.64
2023-01-07T10:09:59.766Z,6.75
2023-01-07T10:12:46.348Z,6.50
2023-01-07T10:15:33.975Z,6.68
2023-01-07T10:18:22.216Z,6.60
2023-01-07T10:21:06.686Z,6.53
2023-01-07T10:23:37.770Z,6.40
2023-01-07T10:26:14.129Z,6.50
2023-01-07T10:29:00.193Z,6.34
2023-01-07T10:31:30.222Z,6.28
2023-01-07T10:34:00.164Z,6.45
2023-01-07T10:36:38.514Z,6.32
2023-01-07T10:39:14.950Z,6.39
2023-01-07T10:41:59.205Z,6.39
2023-01-07T10:44:26.803Z,6.40
2023-01-07T10:47:52.281Z,6.53
2023-01-07T10:50:27.625Z,6.47
2023-01-07T10:53:22.778Z,6.61
2023-01-07T10:56:05.951Z,6.50
2023-01-07T10:58:43.211Z,6.55
2023-01-07T11:01:38.140Z,6.76
2023-01-07T11:04:13.378Z,6.90
2023-01-07T11:07:04.518Z,7.06
2023-01-07T11:09:45.122Z,7.05
2023-01-07T11:12:41.560Z,7.46
2023-01-07T11:15:19.106Z,7.28
2023-01-07T11:17:59.364Z,7.21
2023-01-07T11:20:49.883Z,7.14
2023-01-07T11:23:34.483Z,7.23
2023-01-07T11:26:17.188Z,7.12
2023-01-07T11:28:53.375Z,7.16
2023-01-07T11:31:33.189Z,7.21
2023-01-07T11:34:04.457Z,7.25
2023-01-07T11:36:43.006Z,7.29
2023-01-07T11:39:21.606Z,7.42
2023-01-07T11:41:58.192Z,7.47
2023-01-07T11:44:26.867Z,7.52
2023-01-07T11:46:55.796Z,7.49
2023-01-07T11:49:39.227Z,7.61
2023-01-07T11:52:17.040Z,7.63
2023-01-07T11:54:53.327Z,7.72
2023-01-07T11:57:28.015Z,8.22
2023-01-07T12:00:17.530Z,8.22
2023-01-07T12:02:58.925Z,8.12
2023-01-07T12:05:27.873Z,7.96
2023-01-07T12:07:58.084Z,7.73
2023-01-07T12:10:27.555Z,7.68
2023-01-07T12:12:55.872Z,7.51
2023-01-07T12:15:30.844Z,7.32
2023-01-07T12:18:07.999Z,7.21
2023-01-07T12:20:44.832Z,7.14
2023-01-07T12:23:44.609Z,7.31
2023-01-07T12:26:19.754Z,7.13
2023-01-07T12:29:08.652Z,6.93
2023-01-07T12:32:21.153Z,7.01
2023-01-07T12:35:15.464Z,6.81
2023-01-07T12:37:46.472Z,6.77
2023-01-07T12:40:16.166Z,6.70
2023-01-07T12:43:02.446Z,6.82
2023-01-07T12:45:43.985Z,6.89
2023-01-07T12:48:32.018Z,6.84
2023-01-07T12:51:04.505Z,6.80
2023-01-07T12:54:00.622Z,6.90
2023-01-07T12:56:37.648Z,6.85
2023-01-07T12:59:46.018Z,6.66
2023-01-07T13:02:37.413Z,6.59
2023-01-07T13:05:16.511Z,6.62
2023-01-07T13:08:09.690Z,6.75
2023-01-07T13:10:43.255Z,7.27
2023-01-07T13:13:25.002Z,7.29
2023-01-07T13:15:53.221Z,7.27
2023-01-07T13:18:22.473Z,7.45
2023-01-07T13:21:11.767Z,7.38
2023-01-07T13:24:19.102Z,7.39
2023-01-07T13:27:09.561Z,7.44
2023-01-07T13:29:59.562Z,7.43
2023-01-07T13:32:47.197Z,7.66
2023-01-07T13:35:30.089Z,7.47
2023-01-07T13:38:22.848Z,7.36
2023-01-07T13:41:15.016Z,7.35
2023-01-07T13:44:12.423Z,7.13
2023-01-07T13:46:44.834Z,7.04
2023-01-07T13:49:31.221Z,6.91
2023-01-07T13:52:23.543Z,7.03
2023-01-07T13:54:51.461Z,6.90
2023-01-07T13:57:43.294Z,6.72
2023-01-07T14:00:41.928Z,6.67
2023-01-07T14:03:28.239Z,6.49
2023-01-07T14:06:20.802Z,6.59
2023-01-07T14:09:07.076Z,6.48
2023-01-07T14:11:36.185Z,6.50
2023-01-07T14:14:26.080Z,6.67
2023-01-07T14:17:10.608Z,6.58
2023-01-07T14:19:50.319Z,6.51
2023-01-07T14:22:46.567Z,6.69
2023-01-07T14:25:26.698Z,6.67
2023-01-07T14:27:57.533Z,6.84
2023-01-07T14:30:47.235Z,6.66
2023-01-07T14:33:26.912Z,6.77
2023-01-07T14:35:59.487Z,6.63
2023-01-07T14:38:30.334Z,6.49
2023-01-07T14:41:09.356Z,6.49
2023-01-07T14:43:48.908Z,6.41
2023-01-07T14:46:23.163Z,6.36
2023-01-07T14:49:02.983Z,6.29
2023-01-07T14:51:50.333Z,6.14
2023-01-07T14:54:30.185Z,6.15
2023-01-07T14:57:29.342Z,6.18
2023-01-07T15:00:02.457Z,6.17
2023-01-07T15:03:04.043Z,6.10
2023-01-07T15:05:43.778Z,6.05
2023-01-07T15:08:37.031Z,6.26
2023-01-07T15:11:27.074Z,6.14
2023-01-07T15:14:25.705Z,6.02
2023-01-07T15:16:54.527Z,6.03
2023-01-07T15:19:22.516Z,5.93
2023-01-07T15:21:52.966Z,5.99
2023-01-07T15:24:33.513Z,6.02
2023-01-07T15:27:23.197Z,6.00
2023-01-07T15:30:25.083Z,6.01
2023-01-07T15:33:01.665Z,5.93
2023-01-07T15:35:34.211Z,6.15
2023-01-07T15:38:05.135Z,5.94
2023-01-07T15:40:33.278Z,5.99
2023-01-07T15:43:01.369Z,6.10
2023-01-07T15:45:29.946Z,5.95
2023-01-07T15:48:13.382Z,5.96
2023-01-07T15:50:46.189Z,5.97
2023-01-07T15:53:13.789Z,5.88
2023-01-07T15:55:56.435Z,5.83
2023-01-07T15:58:35.759Z,5.86
2023-01-07T16:01:05.121Z,5.82
2023-01-07T16:03:40.533Z,5.81
2023-01-07T16:06:31.026Z,5.90
2023-01-07T16:08:59.821Z,5.87
2023-01-07T16:11:31.763Z,5.81
2023-01-07T16:14:02.130Z,5.78
2023-01-07T16:16:31.985Z,5.79
2023-01-07T16:19:03.895Z,5.78
2023-01-07T16:21:39.646Z,5.78
2023-01-07T16:24:07.616Z,5.75
2023-01-07T16:26:38.734Z,5.64
2023-01-07T16:29:24.174Z,5.65
2023-01-07T16:31:53.067Z,5.66
2023-01-07T16:34:26.929Z,5.72
2023-01-07T16:36:59.186Z,5.81
2023-01-07T16:39:42.266Z,5.74
2023-01-07T16:42:27.249Z,5.75
2023-01-07T16:44:54.888Z,5.71
2023-01-07T16:47:28.095Z,5.78
2023-01-07T16:49:59.257Z,5.76
2023-01-07T16:52:33.670Z,5.79
2023-01-07T16:55:01.616Z,6.17
2023-01-07T16:57:39.823Z,6.10
2023-01-07T17:00:18.883Z,6.13
2023-01-07T17:02:58.687Z,5.88
2023-01-07T17:05:30.436Z,5.80
2023-01-07T17:08:05.686Z,5.99
2023-01-07T17:10:38.846Z,5.89
2023-01-07T17:13:16.045Z,5.98
2023-01-07T17:15:44.321Z,6.22
2023-01-07T17:18:12.268Z,6.10
2023-01-07T17:20:52.686Z,6.02
2023-01-07T17:23:27.102Z,5.92
2023-01-07T17:26:03.658Z,6.12
2023-01-07T17:28:42.899Z,6.01
2023-01-07T17:31:10.623Z,5.94
2023-01-07T17:33:38.560Z,6.03
2023-01-07T17:36:06.790Z,6.03
2023-01-07T17:38:36.190Z,6.07
2023-01-07T17:41:04.124Z,6.03
2023-01-07T17:43:34.899Z,5.97
2023-01-07T17:46:08.743Z,6.01
2023-01-07T17:48:36.862Z,6.03
2023-01-07T17:51:07.261Z,5.93
2023-01-07T17:53:49.432Z,5.81
2023-01-07T17:56:17.222Z,5.93
2023-01-07T17:58:45.353Z,6.01
2023-01-07T18:01:19.326Z,6.12
2023-01-07T18:03:48.542Z,5.94
2023-01-07T18:06:24.821Z,6.00
2023-01-07T18:08:53.427Z,5.99
2023-01-07T18:11:43.022Z,5.89
2023-01-07T18:14:13.522Z,5.94
2023-01-07T18:16:41.715Z,5.92
2023-01-07T18:19:13.631Z,5.99
2023-01-07T18:21:46.131Z,5.97
2023-01-07T18:24:19.864Z,6.03
2023-01-07T18:26:50.654Z,6.02
2023-01-07T18:29:23.862Z,5.98
2023-01-07T18:31:51.888Z,5.91
2023-01-07T18:34:19.884Z,5.98
2023-01-07T18:36:48.345Z,6.02
2023-01-07T18:39:20.634Z,6.21
2023-01-07T18:41:50.096Z,6.11
2023-01-07T18:44:19.255Z,5.92
2023-01-07T18:46:47.313Z,6.10
2023-01-07T18:49:15.693Z,6.09
2023-01-07T18:51:45.922Z,6.13
2023-01-07T18:54:14.493Z,5.99
2023-01-07T18:56:42.475Z,6.04
2023-01-07T18:59:12.040Z,5.85
2023-01-07T19:01:40.413Z,5.78
2023-01-07T19:04:08.573Z,5.85
2023-01-07T19:06:43.894Z,5.82
2023-01-07T19:09:18.034Z,5.76
2023-01-07T19:11:46.114Z,5.81
2023-01-07T19:14:15.313Z,5.90
2023-01-07T19:16:43.478Z,5.77
2023-01-07T19:19:11.497Z,5.66
2023-01-07T19:21:39.118Z,5.69
2023-01-07T19:24:07.473Z,5.50
2023-01-07T19:26:42.890Z,5.59
2023-01-07T19:29:13.916Z,5.63
2023-01-07T19:31:44.485Z,5.54
2023-01-07T19:34:13.418Z,5.27
2023-01-07T19:36:44.977Z,5.36
2023-01-07T19:39:18.802Z,5.31
2023-01-07T19:41:46.860Z,5.28
2023-01-07T19:44:15.311Z,5.33
2023-01-07T19:46:44.106Z,5.26
2023-01-07T19:49:13.556Z,5.18
2023-01-07T19:51:42.245Z,5.16
2023-01-07T19:54:17.950Z,5.08
2023-01-07T19:56:45.688Z,5.07
2023-01-07T19:59:13.675Z,4.91
2023-01-07T20:01:43.599Z,5.11
2023-01-07T20:04:11.619Z,5.06
2023-01-07T20:06:39.519Z,5.03
2023-01-07T20:09:10.963Z,5.01
2023-01-07T20:11:39.740Z,5.10
2023-01-07T20:14:07.848Z,4.94
2023-01-07T20:16:36.969Z,5.07
2023-01-07T20:19:06.453Z,4.94
2023-01-07T20:21:34.345Z,5.03
2023-01-07T20:24:02.426Z,4.88
2023-01-07T20:26:32.212Z,5.06
2023-01-07T20:29:01.973Z,5.04
2023-01-07T20:31:31.029Z,5.08
2023-01-07T20:34:00.121Z,4.96
2023-01-07T20:36:30.858Z,4.94
2023-01-07T20:39:05.247Z,4.85
2023-01-07T20:41:34.871Z,4.91
2023-01-07T20:44:04.545Z,4.96
2023-01-07T20:46:34.899Z,4.92
2023-01-07T20:49:03.050Z,4.98
2023-01-07T20:51:31.121Z,4.87
2023-01-07T20:53:59.102Z,4.89
2023-01-07T20:56:31.811Z,5.00
2023-01-07T20:59:01.965Z,4.97
2023-01-07T21:01:35.724Z,5.03
2023-01-07T21:04:03.935Z,4.97
2023-01-07T21:06:31.895Z,4.86
2023-01-07T21:09:00.154Z,4.98
2023-01-07T21:11:27.786Z,4.99
2023-01-07T21:13:56.466Z,4.95
2023-01-07T21:16:25.136Z,4.88
2023-01-07T21:18:53.142Z,4.98
2023-01-07T21:21:27.682Z,4.87
2023-01-07T21:26:16.458Z,4.75
2023-01-07T21:28:44.805Z,4.72
2023-01-07T21:31:15.944Z,4.72
2023-01-07T21:33:44.759Z,4.88
2023-01-07T21:36:18.328Z,4.72
2023-01-07T21:38:46.655Z,4.78
2023-01-07T21:41:16.332Z,4.72
2023-01-07T21:43:45.512Z,4.73
2023-01-07T21:46:13.831Z,4.66
2023-01-07T21:48:46.538Z,4.68
2023-01-07T21:51:26.449Z,4.82
2023-01-07T21:53:58.370Z,4.82
2023-01-07T21:56:32.605Z,4.82
2023-01-07T21:59:01.152Z,4.74
2023-01-07T22:01:29.555Z,4.70
2023-01-07T22:03:59.518Z,4.70
2023-01-07T22:06:33.015Z,4.70
2023-01-07T22:09:05.070Z,4.70
2023-01-07T22:11:34.355Z,4.66
2023-01-07T22:14:02.602Z,4.71
2023-01-07T22:16:32.126Z,4.72
2023-01-07T22:19:01.330Z,4.78
2023-01-07T22:21:31.127Z,4.68
2023-01-07T22:23:59.111Z,4.67
2023-01-07T22:26:26.758Z,4.87
2023-01-07T22:29:02.627Z,4.80
2023-01-07T22:31:33.924Z,4.72
2023-01-07T22:34:02.329Z,4.85
2023-01-07T22:36:36.342Z,4.70
2023-01-07T22:39:10.288Z,4.80
2023-01-07T22:41:38.405Z,4.84
2023-01-07T22:44:14.013Z,4.91
2023-01-07T22:46:45.386Z,4.85
2023-01-07T22:49:13.997Z,4.78
2023-01-07T22:51:46.271Z,4.93
2023-01-07T22:54:15.240Z,4.97
2023-01-07T22:56:44.137Z,5.04
2023-01-07T22:59:12.559Z,4.94
2023-01-07T23:01:40.221Z,4.99
2023-01-07T23:04:08.324Z,4.96
2023-01-07T23:06:36.100Z,4.93
2023-01-07T23:09:04.601Z,4.87
2023-01-07T23:11:48.736Z,4.92
2023-01-07T23:14:22.163Z,5.09
2023-01-07T23:16:51.347Z,5.13
2023-01-07T23:19:20.553Z,5.18
2023-01-07T23:21:52.797Z,5.08
2023-01-07T23:24:21.546Z,5.03
2023-01-07T23:26:51.412Z,5.09
2023-01-07T23:29:19.971Z,4.97
2023-01-07T23:31:48.285Z,4.93
2023-01-07T23:34:16.749Z,5.04
2023-01-07T23:36:44.421Z,5.01
2023-01-07T23:39:12.995Z,5.02
2023-01-07T23:41:40.858Z,5.00
2023-01-07T23:44:08.777Z,4.88
2023-01-07T23:46:36.613Z,4.91
2023-01-07T23:49:04.657Z,4.95
2023-01-07T23:51:32.261Z,4.75
2023-01-07T23:54:00.312Z,4.84
2023-01-07T23:56:28.070Z,4.83
2023-01-07T23:58:55.989Z,4.75
